Terminal Aerodrome Forecast
Issued by NWS

Home | Current Version | Previous Version | Text Only | Print | Product List | Glossary On
Versions: 1 2 3 4 5 6 7 8 9 10 11 12 13 14 15 16 17 18 19 20
000
FTUS43 KBIS 301100
TAFDIK
TAF
KDIK 301130Z 3012/3112 33011KT 6SM BR OVC004
     FM301600 36009KT P6SM OVC009
     FM301900 01010KT P6SM SCT015 BKN035
     FM310100 06007KT P6SM SCT035
     FM310600 14015KT P6SM SCT025=

USA.gov is the U.S. government's official web portal to all federal, state and local government web resources and services.